This is the latest recevied weather packets stored in our database for station/object EA2KR-10. If no packets are shown the sender has not sent any weather packets the latest 10 day(s).
| Time | Temp. | Humidity | Pressure | Rain* | Wind** | Luminosity | Snow |
|---|---|---|---|---|---|---|---|
| 1788498210 | 27.22° C | 25% | 1033.8 hPa | - | - | - | - |
| 1788496410 | 27.22° C | 26% | 1033.9 hPa | - | - | - | - |
| 1788494610 | 27.78° C | 26% | 1034 hPa | - | - | - | - |
| 1788492810 | 27.78° C | 26% | 1033.9 hPa | - | - | - | - |
| 1788491010 | 28.33° C | 26% | 1034.2 hPa | - | - | - | - |
| 1788489210 | 28.33° C | 25% | 1034.4 hPa | - | - | - | - |
| 1788487410 | 28.89° C | 25% | 1034.4 hPa | - | - | - | - |
| 1788485609 | 29.44° C | 25% | 1034.5 hPa | - | - | - | - |
| 1788483809 | 30° C | 24% | 1034.7 hPa | - | - | - | - |
| 1788482009 | 30° C | 24% | 1034.7 hPa | - | - | - | - |
| 1788480209 | 30.56° C | 24% | 1035 hPa | - | - | - | - |
| 1788478409 | 31.11° C | 24% | 1035 hPa | - | - | - | - |
| 1788476609 | 31.67° C | 23% | 1035 hPa | - | - | - | - |
| 1788474809 | 32.22° C | 23% | 1035 hPa | - | - | - | - |
| 1788473009 | 33.33° C | 22% | 1035.2 hPa | - | - | - | - |
| 1788471209 | 33.89° C | 20% | 1035.2 hPa | - | - | - | - |
| 1788469408 | 35° C | 21% | 1035.3 hPa | - | - | - | - |
| 1788467608 | 36.11° C | 20% | 1035.3 hPa | - | - | - | - |
| 1788465807 | 37.78° C | 18% | 1035 hPa | - | - | - | - |
| 1788464007 | 39.44° C | 17% | 1034.6 hPa | - | - | - | - |
| 1788462207 | 41.11° C | 16% | 1034.4 hPa | - | - | - | - |
| 1788460409 | 42.78° C | 15% | 1034.2 hPa | - | - | - | - |
| 1788458609 | 45° C | 14% | 1034.1 hPa | - | - | - | - |
| 1788456809 | 46.67° C | 14% | 1034.2 hPa | - | - | - | - |
| 1788455009 | 47.78° C | 14% | 1034.3 hPa | - | - | - | - |
* Rain since midnight (hover to see other rain measurements)
** Current wind speed in m/s (hover to see current wind gust speed)